Sikinos — 9HA2865 — position and weather

sailwx.info

Track history (hours):
 
Tides and Currents Weather Stations Pressure Air Temp Water Temp Dewpoint Dewpoint Depression Visibility Wind Speed Wind Dir Waves Ship Positions

Sikinos

Last reported at 2015-Jan-30 21:08 UTC. Time now 2015-Feb-01 18:16 UTC.
Position N 50°34' W 002°20'.

Length 90 m; draft 6 m.

Type: Ship (hazmat cat A). MMSI: 256462000.

Date/timePositionNaut miles runAvg speedWind from/ knotsBaromVisibWave heightAir tempDewpointWater temp
2015-Jan-30 21:08N 50°34' W 002°20'610.9
2015-Jan-30 20:33N 50°31' W 002°11'1010.2
2015-Jan-30 19:33N 50°30' W 001°55'22 8.6
2015-Jan-30 17:03N 50°30' W 001°21'4 7.5
2015-Jan-30 16:32N 50°30' W 001°15'8 7.8
2015-Jan-30 15:33N 50°30' W 001°03'8 8.2
2015-Jan-30 14:33N 50°30' W 000°50'10 9.9
2015-Jan-30 13:33N 50°30' W 000°35'3310.8
2015-Jan-30 10:29N 50°36' E 000°16'1010.5
2015-Jan-30 09:33N 50°38' E 000°32'10 9.9
2015-Jan-30 08:33N 50°43' E 000°45'10 9.2
2015-Jan-30 07:31N 50°49' E 000°57'12 9.4
2015-Jan-30 06:14N 50°56' E 001°12'7 9.9
2015-Jan-30 05:33N 51°01' E 001°20'1111.4
2015-Jan-30 04:33N 51°08' E 001°34'1212.0
2015-Jan-30 03:33N 51°16' E 001°48'1111.2
2015-Jan-30 02:34N 51°24' E 002°01'1010.0
2015-Jan-30 01:33N 51°21' E 002°16'10 9.5
2015-Jan-30 00:33N 51°23' E 002°31'9 9.2
2015-Jan-29 23:33N 51°22' E 002°45'8 7.8
2015-Jan-29 22:33N 51°23' E 002°58'9 9.0
2015-Jan-29 21:32N 51°24' E 003°12'9 9.2
2015-Jan-29 20:33N 51°25' E 003°27'9 8.6
2015-Jan-29 19:33N 51°27' E 003°40'2 1.5
2015-Jan-29 18:32N 51°28' E 003°42'0 0.0
2015-Jan-29 17:32N 51°28' E 003°42'0 0.0
2015-Jan-29 16:32N 51°28' E 003°42'0 0.0
2015-Jan-29 15:32N 51°28' E 003°42'0 0.0
2015-Jan-29 14:28N 51°28' E 003°42'0 0.0
2015-Jan-29 13:32N 51°28' E 003°42'0 0.0
2015-Jan-29 12:32N 51°28' E 003°42'0 0.0
2015-Jan-29 11:32N 51°28' E 003°42'1 1.4
2015-Jan-29 10:33N 51°27' E 003°40'7 7.2
2015-Jan-29 09:33N 51°29' E 003°30'9 8.6
2015-Jan-29 08:31N 51°37' E 003°22'8 8.5
2015-Jan-29 07:33N 51°44' E 003°17'8 7.0
2015-Jan-29 06:23N 51°52' E 003°19'16 5.5
2015-Jan-29 03:30N 52°03' E 003°38'6 6.1
2015-Jan-29 02:33N 52°04' E 003°47'6 6.3
2015-Jan-29 01:33N 52°05' E 003°57'7 6.8
2015-Jan-29 00:33N 52°06' E 004°08'5 4.7
2015-Jan-28 23:33N 52°06' E 004°16'0 0.0
2015-Jan-28 22:32N 52°06' E 004°16'0 0.0
2015-Jan-28 21:32N 52°06' E 004°16'0 0.0
2015-Jan-28 20:29N 52°06' E 004°16'0 0.0
2015-Jan-28 19:29N 52°06' E 004°16'0 0.0
2015-Jan-28 18:29N 52°06' E 004°16'0 0.0
2015-Jan-28 17:26N 52°06' E 004°16'0 0.0
2015-Jan-28 16:32N 52°06' E 004°16'0 0.0
2015-Jan-28 15:26N 52°06' E 004°16'0 0.0
2015-Jan-28 14:26N 52°06' E 004°16'0 0.0
2015-Jan-28 13:17N 52°06' E 004°16'0 0.0
2015-Jan-28 12:32N 52°06' E 004°16'0 0.0
2015-Jan-28 11:14N 52°06' E 004°16'0 0.0
2015-Jan-28 10:29N 52°06' E 004°16'0 0.0
2015-Jan-28 09:32N 52°06' E 004°16'0 0.0
2015-Jan-28 08:29N 52°06' E 004°16'0 0.0
2015-Jan-28 07:32N 52°06' E 004°16'0 0.0
2015-Jan-28 06:32N 52°06' E 004°16'0 0.0
2015-Jan-28 05:26N 52°06' E 004°16'0 0.0
2015-Jan-28 04:32N 52°06' E 004°16'0 0.0
2015-Jan-28 02:32N 52°06' E 004°16'0 0.0
2015-Jan-28 01:26N 52°06' E 004°16'0 0.0
2015-Jan-28 00:32N 52°06' E 004°16'0 0.0
2015-Jan-27 23:27N 52°06' E 004°16'0 0.2
2015-Jan-27 22:33N 52°06' E 004°16'8 8.3
2015-Jan-27 21:33N 52°03' E 004°03'1211.9
2015-Jan-27 20:32N 51°59' E 003°44'27 8.4
2015-Jan-27 17:20N 51°35' E 003°24'7 9.6
2015-Jan-27 16:33N 51°29' E 003°30'7 7.1
2015-Jan-27 15:33N 51°28' E 003°41'1 0.2
2015-Jan-27 09:33N 51°27' E 003°43'0 0.0
2015-Jan-27 08:33N 51°27' E 003°43'0 0.0
2015-Jan-27 07:21N 51°27' E 003°43'0 0.0
2015-Jan-27 05:27N 51°27' E 003°43'0 0.0
2015-Jan-27 04:26N 51°27' E 003°43'0 0.0
2015-Jan-27 03:30N 51°27' E 003°43'0 0.0
2015-Jan-27 02:33N 51°27' E 003°43'0 0.0
2015-Jan-27 01:29N 51°27' E 003°43'0 0.0
2015-Jan-27 00:27N 51°27' E 003°43'0 0.0
2015-Jan-26 23:32N 51°27' E 003°43'0 0.0
2015-Jan-26 22:32N 51°27' E 003°43'0 0.0
2015-Jan-26 21:33N 51°27' E 003°43'0 0.0
2015-Jan-26 20:27N 51°27' E 003°43'0 0.0
2015-Jan-26 19:32N 51°27' E 003°43'0 0.0
2015-Jan-26 18:33N 51°27' E 003°43'0 0.0
2015-Jan-26 17:29N 51°27' E 003°43'0 0.0
2015-Jan-26 16:29N 51°27' E 003°43'0 0.0
2015-Jan-26 15:20N 51°27' E 003°43'0 0.0
2015-Jan-26 14:26N 51°27' E 003°43'0 0.0
2015-Jan-26 13:11N 51°27' E 003°43'0 0.0
2015-Jan-26 12:29N 51°27' E 003°43'0 0.0
2015-Jan-26 11:20N 51°27' E 003°43'0 0.0
2015-Jan-26 10:32N 51°27' E 003°43'0 0.0
2015-Jan-26 09:20N 51°27' E 003°43'0 0.0
2015-Jan-26 08:32N 51°27' E 003°43'0 0.0
2015-Jan-26 07:32N 51°27' E 003°43'0 0.0
2015-Jan-26 06:26N 51°27' E 003°43'0 0.0
2015-Jan-26 05:32N 51°27' E 003°43'0 0.0
2015-Jan-26 04:32N 51°27' E 003°43'0 0.0
2015-Jan-26 03:23N 51°27' E 003°43'0 0.0
2015-Jan-26 02:20N 51°27' E 003°43'0 0.0
2015-Jan-26 01:11N 51°27' E 003°43'0 0.0
2015-Jan-26 00:26N 51°27' E 003°43'0 0.0
2015-Jan-25 23:32N 51°27' E 003°43'0 0.0
2015-Jan-25 22:17N 51°27' E 003°43'0 0.0
2015-Jan-25 21:11N 51°27' E 003°43'0 0.0
2015-Jan-25 20:17N 51°27' E 003°43'0 0.0
2015-Jan-25 19:26N 51°27' E 003°43'0 0.0
2015-Jan-25 18:29N 51°27' E 003°43'0 0.0
2015-Jan-25 17:32N 51°27' E 003°43'0 0.0
2015-Jan-25 16:32N 51°27' E 003°43'0 0.0
2015-Jan-25 15:26N 51°27' E 003°43'0 0.0
2015-Jan-25 14:32N 51°27' E 003°43'0 0.0
2015-Jan-25 13:32N 51°27' E 003°43'0 0.0
2015-Jan-25 12:32N 51°27' E 003°43'0 0.0
2015-Jan-25 11:32N 51°27' E 003°43'0 0.0
2015-Jan-25 10:33N 51°27' E 003°43'0 0.0
2015-Jan-25 09:33N 51°27' E 003°43'0 0.0
2015-Jan-25 08:33N 51°27' E 003°43'0 0.0
2015-Jan-25 07:33N 51°27' E 003°43'0 0.0
2015-Jan-25 06:33N 51°27' E 003°43'0 0.0
2015-Jan-25 05:33N 51°27' E 003°43'0 0.0
2015-Jan-25 04:33N 51°27' E 003°43'0 0.0
2015-Jan-25 03:33N 51°27' E 003°43'0 0.0
2015-Jan-25 02:33N 51°27' E 003°43'0 0.0
2015-Jan-25 01:33N 51°27' E 003°43'0 0.0
2015-Jan-25 00:33N 51°27' E 003°43'0 0.0
2015-Jan-24 23:33N 51°27' E 003°43'0 0.1
2015-Jan-24 22:33N 51°27' E 003°43'7 7.2
2015-Jan-24 21:33N 51°25' E 003°32'9 8.6
2015-Jan-24 20:33N 51°24' E 003°18'9 9.3
2015-Jan-24 19:34N 51°22' E 003°03'1110.8
2015-Jan-24 18:34N 51°22' E 002°46'1010.2
2015-Jan-24 17:33N 51°22' E 002°30'1411.9
2015-Jan-24 16:22N 51°15' E 002°10'1012.8
2015-Jan-24 15:33N 51°10' E 001°55'1313.5
2015-Jan-24 14:34N 51°02' E 001°39'10610.3
2015-Jan-24 04:11N 49°40' W 000°08'711.8
2015-Jan-24 03:33N 49°34' W 000°02'9 9.0
2015-Jan-24 02:33N 49°28' E 000°09'0 0.1
2015-Jan-24 01:33N 49°28' E 000°09'0 0.0
2015-Jan-24 00:33N 49°28' E 000°09'0 0.0
2015-Jan-23 23:33N 49°28' E 000°09'0 0.0
2015-Jan-23 22:33N 49°28' E 000°09'0 0.0
2015-Jan-23 21:33N 49°28' E 000°09'0 0.0
2015-Jan-23 20:33N 49°28' E 000°09'1 1.2
2015-Jan-23 19:33N 49°29' E 000°07'0 0.0
2015-Jan-23 18:33N 49°29' E 000°07'0 0.0
2015-Jan-23 17:33N 49°29' E 000°07'0 0.0
2015-Jan-23 16:30N 49°29' E 000°07'1 1.2
2015-Jan-23 15:31N 49°28' E 000°09'0 0.0
2015-Jan-23 14:31N 49°28' E 000°09'0 0.0
2015-Jan-23 13:31N 49°28' E 000°09'0 0.0
2015-Jan-23 12:31N 49°28' E 000°09'0 0.0
2015-Jan-23 11:31N 49°28' E 000°09'0 0.0
2015-Jan-23 10:31N 49°28' E 000°09'0 0.0
2015-Jan-23 09:31N 49°28' E 000°09'0 0.3
2015-Jan-23 08:33N 49°28' E 000°08'9 8.7
2015-Jan-23 07:33N 49°31' W 000°05'7 7.0
2015-Jan-23 06:33N 49°33' W 000°15'4 4.3
2015-Jan-23 05:31N 49°36' W 000°20'8610.8
2015-Jan-22 21:32N 50°28' W 002°07'10 0.3
2015-Jan-21 15:14N 50°34' W 002°20'812.0
2015-Jan-21 14:34N 50°30' W 002°09'2914.4
2015-Jan-21 12:32N 50°30' W 001°23'1212.6
2015-Jan-21 11:34N 50°30' W 001°04'46 9.1
2015-Jan-21 06:28N 50°34' E 000°09'1011.1
2015-Jan-21 05:34N 50°37' E 000°24'1111.3
2015-Jan-21 04:34N 50°41' E 000°40'1110.8
2015-Jan-21 03:33N 50°48' E 000°55'19 9.4
2015-Jan-21 01:31N 50°60' E 001°18'7 7.4
2015-Jan-21 00:34N 51°04' E 001°27'7 7.4
2015-Jan-20 23:34N 51°09' E 001°36'9 8.5
2015-Jan-20 22:33N 51°15' E 001°46'1111.0
2015-Jan-20 21:34N 51°25' E 001°53'  
Track history (hours):
 
Tides and Currents Weather Stations Pressure Air Temp Water Temp Dewpoint Dewpoint Depression Visibility Wind Speed Wind Dir Waves Ship Positions

Sikinos

Last reported at 2015-Jan-30 21:08 UTC. Time now 2015-Feb-01 18:16 UTC.
Position N 50°34' W 002°20'.

Length 90 m; draft 6 m.

Type: Ship (hazmat cat A). MMSI: 256462000.

Date/timePositionNaut miles runAvg speedWind from/ knotsBaromVisibWave heightAir tempDewpointWater temp
2015-Jan-30 21:08N 50°34' W 002°20'610.9
2015-Jan-30 20:33N 50°31' W 002°11'1010.2
2015-Jan-30 19:33N 50°30' W 001°55'22 8.6
2015-Jan-30 17:03N 50°30' W 001°21'4 7.5
2015-Jan-30 16:32N 50°30' W 001°15'8 7.8
2015-Jan-30 15:33N 50°30' W 001°03'8 8.2
2015-Jan-30 14:33N 50°30' W 000°50'10 9.9
2015-Jan-30 13:33N 50°30' W 000°35'3310.8
2015-Jan-30 10:29N 50°36' E 000°16'1010.5
2015-Jan-30 09:33N 50°38' E 000°32'10 9.9
2015-Jan-30 08:33N 50°43' E 000°45'10 9.2
2015-Jan-30 07:31N 50°49' E 000°57'12 9.4
2015-Jan-30 06:14N 50°56' E 001°12'7 9.9
2015-Jan-30 05:33N 51°01' E 001°20'1111.4
2015-Jan-30 04:33N 51°08' E 001°34'1212.0
2015-Jan-30 03:33N 51°16' E 001°48'1111.2
2015-Jan-30 02:34N 51°24' E 002°01'1010.0
2015-Jan-30 01:33N 51°21' E 002°16'10 9.5
2015-Jan-30 00:33N 51°23' E 002°31'9 9.2
2015-Jan-29 23:33N 51°22' E 002°45'8 7.8
2015-Jan-29 22:33N 51°23' E 002°58'9 9.0
2015-Jan-29 21:32N 51°24' E 003°12'9 9.2
2015-Jan-29 20:33N 51°25' E 003°27'9 8.6
2015-Jan-29 19:33N 51°27' E 003°40'2 1.5
2015-Jan-29 18:32N 51°28' E 003°42'0 0.0
2015-Jan-29 17:32N 51°28' E 003°42'0 0.0
2015-Jan-29 16:32N 51°28' E 003°42'0 0.0
2015-Jan-29 15:32N 51°28' E 003°42'0 0.0
2015-Jan-29 14:28N 51°28' E 003°42'0 0.0
2015-Jan-29 13:32N 51°28' E 003°42'0 0.0
2015-Jan-29 12:32N 51°28' E 003°42'0 0.0
2015-Jan-29 11:32N 51°28' E 003°42'1 1.4
2015-Jan-29 10:33N 51°27' E 003°40'7 7.2
2015-Jan-29 09:33N 51°29' E 003°30'9 8.6
2015-Jan-29 08:31N 51°37' E 003°22'8 8.5
2015-Jan-29 07:33N 51°44' E 003°17'8 7.0
2015-Jan-29 06:23N 51°52' E 003°19'16 5.5
2015-Jan-29 03:30N 52°03' E 003°38'6 6.1
2015-Jan-29 02:33N 52°04' E 003°47'6 6.3
2015-Jan-29 01:33N 52°05' E 003°57'7 6.8
2015-Jan-29 00:33N 52°06' E 004°08'5 4.7
2015-Jan-28 23:33N 52°06' E 004°16'0 0.0
2015-Jan-28 22:32N 52°06' E 004°16'0 0.0
2015-Jan-28 21:32N 52°06' E 004°16'0 0.0
2015-Jan-28 20:29N 52°06' E 004°16'0 0.0
2015-Jan-28 19:29N 52°06' E 004°16'0 0.0
2015-Jan-28 18:29N 52°06' E 004°16'0 0.0
2015-Jan-28 17:26N 52°06' E 004°16'0 0.0
2015-Jan-28 16:32N 52°06' E 004°16'0 0.0
2015-Jan-28 15:26N 52°06' E 004°16'0 0.0
2015-Jan-28 14:26N 52°06' E 004°16'0 0.0
2015-Jan-28 13:17N 52°06' E 004°16'0 0.0
2015-Jan-28 12:32N 52°06' E 004°16'0 0.0
2015-Jan-28 11:14N 52°06' E 004°16'0 0.0
2015-Jan-28 10:29N 52°06' E 004°16'0 0.0
2015-Jan-28 09:32N 52°06' E 004°16'0 0.0
2015-Jan-28 08:29N 52°06' E 004°16'0 0.0
2015-Jan-28 07:32N 52°06' E 004°16'0 0.0
2015-Jan-28 06:32N 52°06' E 004°16'0 0.0
2015-Jan-28 05:26N 52°06' E 004°16'0 0.0
2015-Jan-28 04:32N 52°06' E 004°16'0 0.0
2015-Jan-28 02:32N 52°06' E 004°16'0 0.0
2015-Jan-28 01:26N 52°06' E 004°16'0 0.0
2015-Jan-28 00:32N 52°06' E 004°16'0 0.0
2015-Jan-27 23:27N 52°06' E 004°16'0 0.2
2015-Jan-27 22:33N 52°06' E 004°16'8 8.3
2015-Jan-27 21:33N 52°03' E 004°03'1211.9
2015-Jan-27 20:32N 51°59' E 003°44'27 8.4
2015-Jan-27 17:20N 51°35' E 003°24'7 9.6
2015-Jan-27 16:33N 51°29' E 003°30'7 7.1
2015-Jan-27 15:33N 51°28' E 003°41'1 0.2
2015-Jan-27 09:33N 51°27' E 003°43'0 0.0
2015-Jan-27 08:33N 51°27' E 003°43'0 0.0
2015-Jan-27 07:21N 51°27' E 003°43'0 0.0
2015-Jan-27 05:27N 51°27' E 003°43'0 0.0
2015-Jan-27 04:26N 51°27' E 003°43'0 0.0
2015-Jan-27 03:30N 51°27' E 003°43'0 0.0
2015-Jan-27 02:33N 51°27' E 003°43'0 0.0
2015-Jan-27 01:29N 51°27' E 003°43'0 0.0
2015-Jan-27 00:27N 51°27' E 003°43'0 0.0
2015-Jan-26 23:32N 51°27' E 003°43'0 0.0
2015-Jan-26 22:32N 51°27' E 003°43'0 0.0
2015-Jan-26 21:33N 51°27' E 003°43'0 0.0
2015-Jan-26 20:27N 51°27' E 003°43'0 0.0
2015-Jan-26 19:32N 51°27' E 003°43'0 0.0
2015-Jan-26 18:33N 51°27' E 003°43'0 0.0
2015-Jan-26 17:29N 51°27' E 003°43'0 0.0
2015-Jan-26 16:29N 51°27' E 003°43'0 0.0
2015-Jan-26 15:20N 51°27' E 003°43'0 0.0
2015-Jan-26 14:26N 51°27' E 003°43'0 0.0
2015-Jan-26 13:11N 51°27' E 003°43'0 0.0
2015-Jan-26 12:29N 51°27' E 003°43'0 0.0
2015-Jan-26 11:20N 51°27' E 003°43'0 0.0
2015-Jan-26 10:32N 51°27' E 003°43'0 0.0
2015-Jan-26 09:20N 51°27' E 003°43'0 0.0
2015-Jan-26 08:32N 51°27' E 003°43'0 0.0
2015-Jan-26 07:32N 51°27' E 003°43'0 0.0
2015-Jan-26 06:26N 51°27' E 003°43'0 0.0
2015-Jan-26 05:32N 51°27' E 003°43'0 0.0
2015-Jan-26 04:32N 51°27' E 003°43'0 0.0
2015-Jan-26 03:23N 51°27' E 003°43'0 0.0
2015-Jan-26 02:20N 51°27' E 003°43'0 0.0
2015-Jan-26 01:11N 51°27' E 003°43'0 0.0
2015-Jan-26 00:26N 51°27' E 003°43'0 0.0
2015-Jan-25 23:32N 51°27' E 003°43'0 0.0
2015-Jan-25 22:17N 51°27' E 003°43'0 0.0
2015-Jan-25 21:11N 51°27' E 003°43'0 0.0
2015-Jan-25 20:17N 51°27' E 003°43'0 0.0
2015-Jan-25 19:26N 51°27' E 003°43'0 0.0
2015-Jan-25 18:29N 51°27' E 003°43'0 0.0
2015-Jan-25 17:32N 51°27' E 003°43'0 0.0
2015-Jan-25 16:32N 51°27' E 003°43'0 0.0
2015-Jan-25 15:26N 51°27' E 003°43'0 0.0
2015-Jan-25 14:32N 51°27' E 003°43'0 0.0
2015-Jan-25 13:32N 51°27' E 003°43'0 0.0
2015-Jan-25 12:32N 51°27' E 003°43'0 0.0
2015-Jan-25 11:32N 51°27' E 003°43'0 0.0
2015-Jan-25 10:33N 51°27' E 003°43'0 0.0
2015-Jan-25 09:33N 51°27' E 003°43'0 0.0
2015-Jan-25 08:33N 51°27' E 003°43'0 0.0
2015-Jan-25 07:33N 51°27' E 003°43'0 0.0
2015-Jan-25 06:33N 51°27' E 003°43'0 0.0
2015-Jan-25 05:33N 51°27' E 003°43'0 0.0
2015-Jan-25 04:33N 51°27' E 003°43'0 0.0
2015-Jan-25 03:33N 51°27' E 003°43'0 0.0
2015-Jan-25 02:33N 51°27' E 003°43'0 0.0
2015-Jan-25 01:33N 51°27' E 003°43'0 0.0
2015-Jan-25 00:33N 51°27' E 003°43'0 0.0
2015-Jan-24 23:33N 51°27' E 003°43'0 0.1
2015-Jan-24 22:33N 51°27' E 003°43'7 7.2
2015-Jan-24 21:33N 51°25' E 003°32'9 8.6
2015-Jan-24 20:33N 51°24' E 003°18'9 9.3
2015-Jan-24 19:34N 51°22' E 003°03'1110.8
2015-Jan-24 18:34N 51°22' E 002°46'1010.2
2015-Jan-24 17:33N 51°22' E 002°30'1411.9
2015-Jan-24 16:22N 51°15' E 002°10'1012.8
2015-Jan-24 15:33N 51°10' E 001°55'1313.5
2015-Jan-24 14:34N 51°02' E 001°39'10610.3
2015-Jan-24 04:11N 49°40' W 000°08'711.8
2015-Jan-24 03:33N 49°34' W 000°02'9 9.0
2015-Jan-24 02:33N 49°28' E 000°09'0 0.1
2015-Jan-24 01:33N 49°28' E 000°09'0 0.0
2015-Jan-24 00:33N 49°28' E 000°09'0 0.0
2015-Jan-23 23:33N 49°28' E 000°09'0 0.0
2015-Jan-23 22:33N 49°28' E 000°09'0 0.0
2015-Jan-23 21:33N 49°28' E 000°09'0 0.0
2015-Jan-23 20:33N 49°28' E 000°09'1 1.2
2015-Jan-23 19:33N 49°29' E 000°07'0 0.0
2015-Jan-23 18:33N 49°29' E 000°07'0 0.0
2015-Jan-23 17:33N 49°29' E 000°07'0 0.0
2015-Jan-23 16:30N 49°29' E 000°07'1 1.2
2015-Jan-23 15:31N 49°28' E 000°09'0 0.0
2015-Jan-23 14:31N 49°28' E 000°09'0 0.0
2015-Jan-23 13:31N 49°28' E 000°09'0 0.0
2015-Jan-23 12:31N 49°28' E 000°09'0 0.0
2015-Jan-23 11:31N 49°28' E 000°09'0 0.0
2015-Jan-23 10:31N 49°28' E 000°09'0 0.0
2015-Jan-23 09:31N 49°28' E 000°09'0 0.3
2015-Jan-23 08:33N 49°28' E 000°08'9 8.7
2015-Jan-23 07:33N 49°31' W 000°05'7 7.0
2015-Jan-23 06:33N 49°33' W 000°15'4 4.3
2015-Jan-23 05:31N 49°36' W 000°20'8610.8
2015-Jan-22 21:32N 50°28' W 002°07'10 0.3
2015-Jan-21 15:14N 50°34' W 002°20'812.0
2015-Jan-21 14:34N 50°30' W 002°09'2914.4
2015-Jan-21 12:32N 50°30' W 001°23'1212.6
2015-Jan-21 11:34N 50°30' W 001°04'46 9.1
2015-Jan-21 06:28N 50°34' E 000°09'1011.1
2015-Jan-21 05:34N 50°37' E 000°24'1111.3
2015-Jan-21 04:34N 50°41' E 000°40'1110.8
2015-Jan-21 03:33N 50°48' E 000°55'19 9.4
2015-Jan-21 01:31N 50°60' E 001°18'7 7.4
2015-Jan-21 00:34N 51°04' E 001°27'7 7.4
2015-Jan-20 23:34N 51°09' E 001°36'9 8.5
2015-Jan-20 22:33N 51°15' E 001°46'1111.0
2015-Jan-20 21:34N 51°25' E 001°53'  

Dump ship's entire track history